createdAt,value
2023-01-19T00:01:13.297Z,99275.47
2023-01-19T00:04:16.929Z,99276.25
2023-01-19T00:07:23.469Z,99270.06
2023-01-19T00:10:28.328Z,99277.84
2023-01-19T00:13:31.041Z,99277.06
2023-01-19T00:16:33.749Z,99281.59
2023-01-19T00:19:38.708Z,99271.75
2023-01-19T00:22:42.730Z,99279.59
2023-01-19T00:25:45.432Z,99289.44
2023-01-19T00:28:52.040Z,99291.16
2023-01-19T00:31:54.793Z,99285.84
2023-01-19T00:35:01.948Z,99290.25
2023-01-19T00:38:06.716Z,99287.69
2023-01-19T00:41:13.974Z,99283.16
2023-01-19T00:44:16.741Z,99293.97
2023-01-19T00:47:22.629Z,99293.03
2023-01-19T00:50:26.493Z,99298.38
2023-01-19T00:53:42.576Z,99296.66
2023-01-19T00:56:49.716Z,99297.53
2023-01-19T00:59:53.534Z,99300.28
2023-01-19T01:03:05.162Z,99296.91
2023-01-19T01:06:11.793Z,99304.78
2023-01-19T01:09:18.753Z,99311.16
2023-01-19T01:12:21.397Z,99308.56
2023-01-19T01:15:26.751Z,99321.84
2023-01-19T01:18:29.947Z,99319.19
2023-01-19T01:21:34.536Z,99309.44
2023-01-19T01:24:41.783Z,99317.41
2023-01-19T01:27:45.754Z,99318.44
2023-01-19T01:30:52.904Z,99324.63
2023-01-19T01:33:58.716Z,99330.00
2023-01-19T01:37:02.006Z,99324.72
2023-01-19T01:40:12.670Z,99325.69
2023-01-19T01:43:19.337Z,99320.34
2023-01-19T01:46:26.509Z,99330.09
2023-01-19T01:49:38.950Z,99331.09
2023-01-19T01:53:06.832Z,99338.16
2023-01-19T01:56:16.242Z,99336.28
2023-01-19T01:59:26.678Z,99333.63
2023-01-19T02:02:56.928Z,99341.53
2023-01-19T02:06:02.973Z,99329.00
2023-01-19T02:09:29.746Z,99323.75
2023-01-19T02:12:55.797Z,99323.75
2023-01-19T02:16:03.014Z,99324.69
2023-01-19T02:19:09.692Z,99327.41
2023-01-19T02:22:19.477Z,99328.38
2023-01-19T02:25:25.227Z,99329.28
2023-01-19T02:28:31.576Z,99331.09
2023-01-19T02:31:37.221Z,99329.31
2023-01-19T02:34:46.027Z,99323.09
2023-01-19T02:37:51.616Z,99326.72
2023-01-19T02:40:57.923Z,99330.19
2023-01-19T02:44:02.111Z,99334.63
2023-01-19T02:47:05.591Z,99338.16
2023-01-19T02:50:37.967Z,99347.00
2023-01-19T02:53:59.791Z,99337.34
2023-01-19T02:57:36.105Z,99329.38
2023-01-19T03:00:51.025Z,99321.44
2023-01-19T03:04:01.019Z,99325.06
2023-01-19T03:07:12.615Z,99317.13
2023-01-19T03:10:21.512Z,99316.25
2023-01-19T03:13:33.971Z,99325.09
2023-01-19T03:16:42.119Z,99324.19
2023-01-19T03:19:48.083Z,99320.66
2023-01-19T03:22:55.111Z,99325.97
2023-01-19T03:26:00.364Z,99315.31
2023-01-19T03:29:06.885Z,99313.41
2023-01-19T03:32:17.298Z,99309.81
2023-01-19T03:35:22.879Z,99315.88
2023-01-19T03:38:36.901Z,99315.81
2023-01-19T03:41:42.420Z,99320.06
2023-01-19T03:44:50.495Z,99314.78
2023-01-19T03:47:53.529Z,99321.78
2023-01-19T03:50:56.735Z,99311.22
2023-01-19T03:54:01.989Z,99318.28
2023-01-19T03:57:07.778Z,99316.44
2023-01-19T04:00:13.682Z,99319.25
2023-01-19T04:03:17.604Z,99317.34
2023-01-19T04:06:22.076Z,99329.81
2023-01-19T04:09:30.995Z,99327.09
2023-01-19T04:12:35.458Z,99334.16
2023-01-19T04:15:39.811Z,99345.56
2023-01-19T04:18:44.494Z,99343.78
2023-01-19T04:21:50.741Z,99343.78
2023-01-19T04:24:53.439Z,99340.28
2023-01-19T04:27:57.975Z,99345.69
2023-01-19T04:31:02.360Z,99348.34
2023-01-19T04:34:05.081Z,99354.53
2023-01-19T04:37:08.504Z,99351.91
2023-01-19T04:40:12.395Z,99351.00
2023-01-19T04:43:15.526Z,99350.13
2023-01-19T04:46:19.548Z,99350.97
2023-01-19T04:49:24.624Z,99351.00
2023-01-19T04:52:34.858Z,99345.72
2023-01-19T04:55:40.516Z,99345.03
2023-01-19T04:58:43.203Z,99338.03
2023-01-19T05:01:47.247Z,99347.81
2023-01-19T05:04:49.970Z,99359.38
2023-01-19T05:07:52.579Z,99356.72
2023-01-19T05:10:58.403Z,99348.75
2023-01-19T05:14:01.050Z,99354.13
2023-01-19T05:17:05.102Z,99365.63
2023-01-19T05:20:11.164Z,99358.59
2023-01-19T05:23:19.976Z,99357.69
2023-01-19T05:26:22.771Z,99363.06
2023-01-19T05:29:28.471Z,99370.16
2023-01-19T05:32:32.572Z,99367.47
2023-01-19T05:35:37.411Z,99364.00
2023-01-19T05:38:44.148Z,99357.81
2023-01-19T05:41:49.965Z,99356.97
2023-01-19T05:44:52.872Z,99353.44
2023-01-19T05:47:59.898Z,99354.31
2023-01-19T05:51:10.382Z,99351.66
2023-01-19T05:54:15.091Z,99335.91
2023-01-19T05:57:18.006Z,99366.59
2023-01-19T06:00:24.523Z,99359.56
2023-01-19T06:03:29.903Z,99371.94
2023-01-19T06:06:41.820Z,99364.94
2023-01-19T06:09:44.435Z,99365.84
2023-01-19T06:12:50.342Z,99358.75
2023-01-19T06:15:59.916Z,99371.09
2023-01-19T06:19:11.611Z,99361.34
2023-01-19T06:22:14.304Z,99361.38
2023-01-19T06:25:16.999Z,99366.63
2023-01-19T06:28:19.687Z,99371.06
2023-01-19T06:31:22.613Z,99370.22
2023-01-19T06:34:28.751Z,99372.03
2023-01-19T06:37:35.086Z,99385.22
2023-01-19T06:40:38.591Z,99393.22
2023-01-19T06:43:41.259Z,99402.03
2023-01-19T06:46:50.200Z,99399.34
2023-01-19T06:49:54.224Z,99395.78
2023-01-19T06:52:56.990Z,99397.56
2023-01-19T06:56:00.984Z,99396.72
2023-01-19T06:59:04.143Z,99400.25
2023-01-19T07:02:26.510Z,99406.41
2023-01-19T07:05:32.065Z,99412.63
2023-01-19T07:08:38.553Z,99417.03
2023-01-19T07:11:41.914Z,99417.06
2023-01-19T07:14:44.858Z,99408.22
2023-01-19T07:17:47.929Z,99428.56
2023-01-19T07:20:51.983Z,99425.00
2023-01-19T07:23:55.023Z,99434.78
2023-01-19T07:26:57.751Z,99447.13
2023-01-19T07:30:01.113Z,99439.09
2023-01-19T07:33:06.040Z,99428.47
2023-01-19T07:36:10.972Z,99428.31
2023-01-19T07:39:13.898Z,99437.13
2023-01-19T07:42:17.180Z,99424.72
2023-01-19T07:45:21.641Z,99430.84
2023-01-19T07:48:24.303Z,99435.25
2023-01-19T07:51:28.331Z,99442.22
2023-01-19T07:54:31.153Z,99437.69
2023-01-19T07:57:33.998Z,99424.28
2023-01-19T08:00:37.962Z,99438.28
2023-01-19T08:03:41.220Z,99427.44
2023-01-19T08:06:47.188Z,99437.88
2023-01-19T08:09:49.892Z,99443.13
2023-01-19T08:12:52.928Z,99442.13
2023-01-19T08:15:55.801Z,99449.91
2023-01-19T08:18:58.539Z,99450.59
2023-01-19T08:22:05.080Z,99447.59
2023-01-19T08:25:09.415Z,99447.22
2023-01-19T08:28:14.401Z,99446.81
2023-01-19T08:31:21.028Z,99440.09
2023-01-19T08:34:25.731Z,99447.78
2023-01-19T08:37:37.402Z,99436.78
2023-01-19T08:40:41.970Z,99439.16
2023-01-19T08:43:53.888Z,99427.53
2023-01-19T08:46:56.610Z,99432.75
2023-01-19T08:49:59.277Z,99440.81
2023-01-19T08:53:06.558Z,99435.50
2023-01-19T08:56:22.502Z,99432.69
2023-01-19T08:59:25.144Z,99431.56
2023-01-19T09:02:31.318Z,99437.78
2023-01-19T09:05:37.261Z,99438.53
2023-01-19T09:08:42.587Z,99435.78
2023-01-19T09:11:45.299Z,99438.25
2023-01-19T09:14:47.983Z,99431.09
2023-01-19T09:17:52.841Z,99439.84
2023-01-19T09:20:58.366Z,99436.16
2023-01-19T09:24:06.061Z,99435.00
2023-01-19T09:27:09.174Z,99437.34
2023-01-19T09:30:13.092Z,99425.47
2023-01-19T09:33:18.582Z,99432.47
2023-01-19T09:36:21.224Z,99427.28
2023-01-19T09:39:26.417Z,99433.66
2023-01-19T09:42:38.171Z,99426.66
2023-01-19T09:45:46.972Z,99429.25
2023-01-19T09:48:52.863Z,99435.75
2023-01-19T09:51:55.635Z,99431.72
2023-01-19T09:54:59.932Z,99425.06
2023-01-19T09:58:05.699Z,99416.69
2023-01-19T10:01:21.249Z,99412.00
2023-01-19T10:04:37.809Z,99406.56
2023-01-19T10:07:54.238Z,99409.56
2023-01-19T10:10:59.630Z,99407.47
2023-01-19T10:14:04.642Z,99414.50
2023-01-19T10:17:21.369Z,99411.84
2023-01-19T10:20:34.414Z,99407.53
2023-01-19T10:23:42.187Z,99397.16
2023-01-19T10:26:50.070Z,99400.69
2023-01-19T10:29:52.849Z,99402.16
2023-01-19T10:33:02.055Z,99391.28
2023-01-19T10:36:16.191Z,99398.50
2023-01-19T10:39:22.265Z,99403.09
2023-01-19T10:42:29.969Z,99402.22
2023-01-19T10:45:34.882Z,99399.38
2023-01-19T10:48:42.892Z,99399.06
2023-01-19T10:51:49.023Z,99396.13
2023-01-19T10:54:51.952Z,99396.56
2023-01-19T10:57:57.275Z,99400.53
2023-01-19T11:01:14.353Z,99406.31
2023-01-19T11:04:22.435Z,99399.19
2023-01-19T11:07:29.973Z,99392.69
2023-01-19T11:10:33.401Z,99393.78
2023-01-19T11:13:40.833Z,99390.75
2023-01-19T11:16:49.376Z,99396.19
2023-01-19T11:20:02.052Z,99392.06
2023-01-19T11:23:06.525Z,99397.56
2023-01-19T11:26:10.679Z,99403.09
2023-01-19T11:29:20.947Z,99400.44
2023-01-19T11:32:25.098Z,99399.25
2023-01-19T11:35:37.311Z,99392.06
2023-01-19T11:38:44.236Z,99379.41
2023-01-19T11:41:51.805Z,99394.78
2023-01-19T11:45:05.205Z,99394.09
2023-01-19T11:48:16.772Z,99390.94
2023-01-19T11:51:22.593Z,99394.09
2023-01-19T11:54:32.499Z,99397.13
2023-01-19T11:57:39.962Z,99398.44
2023-01-19T12:00:47.327Z,99397.00
2023-01-19T12:03:57.957Z,99401.72
2023-01-19T12:07:07.469Z,99399.97
2023-01-19T12:10:26.073Z,99387.47
2023-01-19T12:13:30.559Z,99386.34
2023-01-19T12:16:38.761Z,99389.94
2023-01-19T12:19:47.317Z,99385.38
2023-01-19T12:22:59.796Z,99385.16
2023-01-19T12:26:37.366Z,99379.00
2023-01-19T12:29:41.393Z,99382.59
2023-01-19T12:32:48.756Z,99381.91
2023-01-19T12:35:56.020Z,99380.44
2023-01-19T12:39:03.746Z,99378.75
2023-01-19T12:42:13.666Z,99377.13
2023-01-19T12:45:19.574Z,99387.06
2023-01-19T12:48:28.433Z,99377.31
2023-01-19T12:51:31.271Z,99382.75
2023-01-19T12:54:36.453Z,99372.06
2023-01-19T12:57:42.179Z,99378.03
2023-01-19T13:00:46.155Z,99380.72
2023-01-19T13:04:09.361Z,99370.06
2023-01-19T13:07:17.835Z,99376.06
2023-01-19T13:10:57.341Z,99376.91
2023-01-19T13:14:35.830Z,99385.78
2023-01-19T13:17:49.919Z,99375.84
2023-01-19T13:20:58.096Z,99377.59
2023-01-19T13:24:03.121Z,99370.38
2023-01-19T13:27:06.109Z,99380.97
2023-01-19T13:30:13.340Z,99381.97
2023-01-19T13:33:21.025Z,99387.22
2023-01-19T13:36:30.768Z,99384.53
2023-01-19T13:39:37.671Z,99392.56
2023-01-19T13:42:42.785Z,99398.97
2023-01-19T13:45:51.715Z,99396.28
2023-01-19T13:48:58.695Z,99392.81
2023-01-19T13:52:14.429Z,99403.66
2023-01-19T13:55:18.761Z,99410.81
2023-01-19T13:58:23.432Z,99416.16
2023-01-19T14:01:29.350Z,99410.81
2023-01-19T14:04:36.238Z,99415.16
2023-01-19T14:07:40.364Z,99415.97
2023-01-19T14:10:45.916Z,99416.69
2023-01-19T14:13:48.640Z,99416.44
2023-01-19T14:16:51.426Z,99414.75
2023-01-19T14:19:55.555Z,99411.06
2023-01-19T14:23:02.088Z,99403.88
2023-01-19T14:26:05.059Z,99411.88
2023-01-19T14:29:26.037Z,99415.41
2023-01-19T14:32:29.758Z,99418.84
2023-01-19T14:35:34.624Z,99410.72
2023-01-19T14:38:39.479Z,99411.56
2023-01-19T14:41:52.356Z,99416.00
2023-01-19T14:44:57.357Z,99427.47
2023-01-19T14:48:03.414Z,99416.81
2023-01-19T14:51:06.732Z,99427.66
2023-01-19T14:54:18.756Z,99423.34
2023-01-19T14:57:24.918Z,99424.44
2023-01-19T15:00:27.945Z,99426.47
2023-01-19T15:03:44.671Z,99430.28
2023-01-19T15:06:48.443Z,99427.69
2023-01-19T15:09:52.942Z,99430.56
2023-01-19T15:12:56.241Z,99440.56
2023-01-19T15:15:59.224Z,99438.06
2023-01-19T15:19:02.061Z,99432.88
2023-01-19T15:22:11.954Z,99448.34
2023-01-19T15:25:18.393Z,99446.94
2023-01-19T15:28:21.411Z,99448.91
2023-01-19T15:31:26.507Z,99452.47
2023-01-19T15:34:32.306Z,99457.97
2023-01-19T15:37:36.364Z,99459.00
2023-01-19T15:40:40.442Z,99452.91
2023-01-19T15:43:43.302Z,99445.13
2023-01-19T15:46:45.913Z,99432.09
2023-01-19T15:49:48.614Z,99465.47
2023-01-19T15:52:51.399Z,99462.84
2023-01-19T15:55:56.888Z,99463.72
2023-01-19T15:58:59.893Z,99466.34
2023-01-19T16:02:03.748Z,99464.56
2023-01-19T16:05:18.008Z,99462.75
2023-01-19T16:08:22.060Z,99474.31
2023-01-19T16:11:26.998Z,99469.88
2023-01-19T16:14:29.841Z,99478.72
2023-01-19T16:17:34.735Z,99477.78
2023-01-19T16:20:37.566Z,99481.38
2023-01-19T16:23:40.327Z,99485.84
2023-01-19T16:26:44.327Z,99481.34
2023-01-19T16:29:48.830Z,99485.09
2023-01-19T16:32:51.561Z,99493.03
2023-01-19T16:35:54.379Z,99494.00
2023-01-19T16:39:01.831Z,99496.88
2023-01-19T16:42:06.092Z,99493.50
2023-01-19T16:45:09.429Z,99501.53
2023-01-19T16:48:12.125Z,99499.63
2023-01-19T16:51:14.858Z,99499.59
2023-01-19T16:54:20.858Z,99500.50
2023-01-19T16:57:25.046Z,99505.06
2023-01-19T17:00:27.728Z,99508.66
2023-01-19T17:03:32.710Z,99498.00
2023-01-19T17:06:35.408Z,99499.72
2023-01-19T17:09:38.319Z,99504.22
2023-01-19T17:12:46.352Z,99510.53
2023-01-19T17:15:49.110Z,99509.59
2023-01-19T17:18:52.042Z,99501.53
2023-01-19T17:21:54.739Z,99504.09
2023-01-19T17:24:57.368Z,99511.16
2023-01-19T17:28:02.029Z,99520.09
2023-01-19T17:31:06.438Z,99509.28
2023-01-19T17:34:09.814Z,99516.47
2023-01-19T17:37:12.447Z,99528.00
2023-01-19T17:40:15.310Z,99519.13
2023-01-19T17:43:19.316Z,99528.88
2023-01-19T17:46:23.989Z,99530.63
2023-01-19T17:49:26.702Z,99530.53
2023-01-19T17:52:29.342Z,99530.75
2023-01-19T17:55:33.954Z,99523.69
2023-01-19T17:58:38.485Z,99530.81
2023-01-19T18:01:42.886Z,99533.56
2023-01-19T18:04:46.155Z,99527.44
2023-01-19T18:07:49.006Z,99530.13
2023-01-19T18:10:55.355Z,99532.88
2023-01-19T18:14:00.169Z,99538.16
2023-01-19T18:17:03.780Z,99541.72
2023-01-19T18:20:07.711Z,99550.63
2023-01-19T18:23:10.385Z,99551.50
2023-01-19T18:26:15.639Z,99535.41
2023-01-19T18:29:20.546Z,99543.38
2023-01-19T18:32:29.295Z,99546.91
2023-01-19T18:35:32.042Z,99542.38
2023-01-19T18:38:35.374Z,99548.03
2023-01-19T18:41:41.748Z,99542.81
2023-01-19T18:44:45.770Z,99546.41
2023-01-19T18:47:48.483Z,99548.50
2023-01-19T18:50:51.385Z,99540.56
2023-01-19T18:53:54.199Z,99545.03
2023-01-19T18:56:56.992Z,99554.91
2023-01-19T19:00:01.093Z,99550.34
2023-01-19T19:03:03.789Z,99545.97
2023-01-19T19:06:06.839Z,99554.84
2023-01-19T19:09:10.318Z,99555.66
2023-01-19T19:12:13.225Z,99561.78
2023-01-19T19:15:17.697Z,99550.31
2023-01-19T19:18:20.586Z,99562.66
2023-01-19T19:21:25.389Z,99552.84
2023-01-19T19:24:28.155Z,99549.25
2023-01-19T19:27:30.823Z,99555.59
2023-01-19T19:30:37.701Z,99560.00
2023-01-19T19:33:41.605Z,99558.41
2023-01-19T19:36:44.299Z,99565.28
2023-01-19T19:39:48.594Z,99570.66
2023-01-19T19:42:51.440Z,99565.34
2023-01-19T19:45:59.879Z,99567.44
2023-01-19T19:49:03.048Z,99578.00
2023-01-19T19:52:06.064Z,99574.69
2023-01-19T19:55:10.587Z,99581.94
2023-01-19T19:58:13.277Z,99582.84
2023-01-19T20:01:19.278Z,99587.34
2023-01-19T20:04:23.792Z,99596.22
2023-01-19T20:07:26.598Z,99596.09
2023-01-19T20:10:30.025Z,99596.03
2023-01-19T20:13:33.072Z,99595.13
2023-01-19T20:16:37.623Z,99605.81
2023-01-19T20:19:40.525Z,99601.28
2023-01-19T20:22:43.314Z,99603.13
2023-01-19T20:25:46.394Z,99599.59
2023-01-19T20:28:49.385Z,99598.75
2023-01-19T20:31:55.542Z,99610.34
2023-01-19T20:34:58.184Z,99603.28
2023-01-19T20:38:00.915Z,99604.13
2023-01-19T20:41:03.686Z,99605.00
2023-01-19T20:44:06.317Z,99605.88
2023-01-19T20:47:10.400Z,99600.53
2023-01-19T20:50:13.623Z,99605.97
2023-01-19T20:53:16.961Z,99610.28
2023-01-19T20:56:19.604Z,99598.72
2023-01-19T20:59:23.011Z,99600.66
2023-01-19T21:02:28.584Z,99602.50
2023-01-19T21:05:31.309Z,99604.44
2023-01-19T21:08:34.213Z,99609.09
2023-01-19T21:11:37.802Z,99605.66
2023-01-19T21:14:42.354Z,99615.56
2023-01-19T21:17:46.407Z,99619.28
2023-01-19T21:20:49.222Z,99628.31
2023-01-19T21:23:52.305Z,99617.75
2023-01-19T21:26:54.953Z,99629.41
2023-01-19T21:29:58.629Z,99625.88
2023-01-19T21:33:05.101Z,99637.44
2023-01-19T21:36:09.757Z,99618.91
2023-01-19T21:39:12.529Z,99640.97
2023-01-19T21:42:15.251Z,99635.63
2023-01-19T21:45:17.954Z,99642.69
2023-01-19T21:48:22.051Z,99645.38
2023-01-19T21:51:24.829Z,99647.06
2023-01-19T21:54:27.675Z,99651.53
2023-01-19T21:57:30.315Z,99646.16
2023-01-19T22:00:33.000Z,99646.09
2023-01-19T22:03:37.217Z,99651.34
2023-01-19T22:06:40.139Z,99663.81
2023-01-19T22:09:42.840Z,99660.19
2023-01-19T22:12:46.014Z,99662.06
2023-01-19T22:15:48.635Z,99668.38
2023-01-19T22:18:56.432Z,99663.03
2023-01-19T22:21:59.074Z,99668.34
2023-01-19T22:25:02.426Z,99670.94
2023-01-19T22:28:05.107Z,99670.00
2023-01-19T22:31:09.869Z,99675.38
2023-01-19T22:34:15.789Z,99675.34
2023-01-19T22:37:19.013Z,99683.34
2023-01-19T22:40:21.996Z,99689.53
2023-01-19T22:43:24.713Z,99679.69
2023-01-19T22:46:29.448Z,99676.09
2023-01-19T22:49:33.508Z,99677.94
2023-01-19T22:52:36.185Z,99684.13
2023-01-19T22:55:38.911Z,99687.75
2023-01-19T22:58:44.087Z,99687.69
2023-01-19T23:01:47.229Z,99680.56
2023-01-19T23:04:51.402Z,99678.78
2023-01-19T23:07:54.046Z,99686.75
2023-01-19T23:10:56.687Z,99691.22
2023-01-19T23:14:00.097Z,99684.09
2023-01-19T23:17:03.673Z,99688.53
2023-01-19T23:20:09.514Z,99689.41
2023-01-19T23:23:12.244Z,99686.75
2023-01-19T23:26:16.938Z,99689.41
2023-01-19T23:29:19.792Z,99681.38
2023-01-19T23:32:22.477Z,99690.28
2023-01-19T23:35:26.503Z,99689.41
2023-01-19T23:38:29.195Z,99700.09
2023-01-19T23:41:34.449Z,99695.66
2023-01-19T23:44:41.553Z,99695.66
2023-01-19T23:47:51.405Z,99690.28
2023-01-19T23:50:55.415Z,99693.84
2023-01-19T23:54:03.383Z,99697.41
2023-01-19T23:57:06.089Z,99703.63
